DLH6J EDDF-LOWS
Flight info
| Callsign | DLH6J |
|---|---|
| Flight time | N/A |
| Altitude | 29000 |
| Route | CINDY8S/18 CINDY Z74 HAREM DCT ASLEP DCT TAKUT DCT DINKU L603 OLETU T702 BADIT BADIT2R |
| Aircraft | A319/M-SDE3FGHIRWY/LB1 |
Departure
| Time | N/A |
|---|---|
| Airport | Frankfurt Main Airport (EDDF) |
Arrival
| Time | 2026-04-27 14:14 |
|---|---|
| Airport | Salzburg Airport (LOWS) |
| Time | Latitude | Longitude | Altitude | Speed | Heading |
|---|---|---|---|---|---|
| 2026-04-27 14:06 | 48.19754 | 12.70215 | 10237 ft | 314 kts | 110° |
| 2026-04-27 14:06 | 48.18993 | 12.73231 | 10042 ft | 305 kts | 110° |
| 2026-04-27 14:06 | 48.18253 | 12.76195 | 9555 ft | 306 kts | 110° |
| 2026-04-27 14:06 | 48.17480 | 12.79166 | 9212 ft | 303 kts | 116° |
| 2026-04-27 14:07 | 48.16315 | 12.81744 | 8802 ft | 297 kts | 134° |
| 2026-04-27 14:07 | 48.14710 | 12.83644 | 8286 ft | 293 kts | 152° |
| 2026-04-27 14:07 | 48.12831 | 12.84747 | 7766 ft | 289 kts | 168° |
| 2026-04-27 14:07 | 48.10881 | 12.85432 | 7244 ft | 287 kts | 168° |
| 2026-04-27 14:08 | 48.08939 | 12.86128 | 6691 ft | 286 kts | 168° |
| 2026-04-27 14:08 | 48.06980 | 12.86835 | 5902 ft | 294 kts | 167° |
| 2026-04-27 14:08 | 48.04998 | 12.87553 | 5457 ft | 288 kts | 167° |
| 2026-04-27 14:08 | 48.03108 | 12.88238 | 5307 ft | 271 kts | 167° |
| 2026-04-27 14:09 | 48.01332 | 12.88882 | 5183 ft | 254 kts | 167° |
| 2026-04-27 14:09 | 47.99639 | 12.89294 | 5072 ft | 240 kts | 179° |
| 2026-04-27 14:09 | 47.98016 | 12.89329 | 4972 ft | 227 kts | 179° |
| 2026-04-27 14:09 | 47.96483 | 12.89566 | 4833 ft | 218 kts | 164° |
| 2026-04-27 14:10 | 47.95091 | 12.90386 | 4588 ft | 214 kts | 156° |
| 2026-04-27 14:10 | 47.93734 | 12.91256 | 4336 ft | 209 kts | 156° |
| 2026-04-27 14:10 | 47.92405 | 12.92104 | 4022 ft | 207 kts | 156° |
| 2026-04-27 14:10 | 47.91093 | 12.92938 | 3752 ft | 202 kts | 156° |
| 2026-04-27 14:11 | 47.89818 | 12.93748 | 3472 ft | 194 kts | 156° |
| 2026-04-27 14:11 | 47.88621 | 12.94506 | 3224 ft | 179 kts | 156° |
| 2026-04-27 14:11 | 47.87511 | 12.95206 | 2989 ft | 168 kts | 156° |
| 2026-04-27 14:11 | 47.86447 | 12.95855 | 2763 ft | 162 kts | 155° |
| 2026-04-27 14:12 | 47.85430 | 12.96520 | 2563 ft | 159 kts | 154° |
| 2026-04-27 14:12 | 47.84396 | 12.97188 | 2317 ft | 164 kts | 156° |
| 2026-04-27 14:12 | 47.83363 | 12.97837 | 2092 ft | 159 kts | 155° |
| 2026-04-27 14:12 | 47.82368 | 12.98487 | 1878 ft | 153 kts | 156° |
| 2026-04-27 14:13 | 47.81382 | 12.99097 | 1713 ft | 153 kts | 156° |
| 2026-04-27 14:13 | 47.80407 | 12.99714 | 1499 ft | 151 kts | 157° |
| 2026-04-27 14:13 | 47.79501 | 13.00290 | 1423 ft | 120 kts | 158° |
| 2026-04-27 14:13 | 47.78907 | 13.00665 | 1420 ft | 60 kts | 156° |
| 2026-04-27 14:14 | 47.78684 | 13.00805 | 1420 ft | 19 kts | 157° |
| 2026-04-27 14:14 | 47.78586 | 13.00859 | 1422 ft | 11 kts | 174° |
| 2026-04-27 14:14 | 47.78546 | 13.00780 | 1420 ft | 10 kts | 250° |
| 2026-04-27 14:14 | 47.78526 | 13.00675 | 1420 ft | 11 kts | 271° |
| 2026-04-27 14:15 | 47.78580 | 13.00604 | 1420 ft | 11 kts | 336° |
| 2026-04-27 14:15 | 47.78655 | 13.00556 | 1420 ft | 12 kts | 336° |
| 2026-04-27 14:15 | 47.78738 | 13.00502 | 1423 ft | 14 kts | 337° |
| 2026-04-27 14:15 | 47.78828 | 13.00445 | 1421 ft | 15 kts | 336° |
| 2026-04-27 14:16 | 47.78922 | 13.00386 | 1422 ft | 13 kts | 336° |
| 2026-04-27 14:16 | 47.78954 | 13.00277 | 1420 ft | 13 kts | 267° |
| 2026-04-27 14:16 | 47.78975 | 13.00149 | 1421 ft | 13 kts | 317° |
| 2026-04-27 14:16 | 47.79056 | 13.00093 | 1420 ft | 7 kts | 338° |
| 2026-04-27 14:17 | 47.79081 | 13.00038 | 1420 ft | 7 kts | 277° |
| 2026-04-27 14:17 | 47.79090 | 12.99966 | 1420 ft | 5 kts | 281° |
| 2026-04-27 14:17 | 47.79091 | 12.99959 | 1420 ft | 0 kts | 282° |